Time;durP1;ratioP1;P1;durP2;ratioP2;P2;SDS_P1;SDS_P2;PMS_P1;PMS_P2;Temp;Humidity;BMP_temperature;BMP_pressure;BME280_temperature;BME280_humidity;BME280_pressure;Samples;Min_cycle;Max_cycle;Signal;HPM_P1;HPM_P2
2022/07/02 00:00:58;;;;;;;7.05;2.40;;;15.50;99.90;;;;;;5057249;28;20051;-78
2022/07/02 00:03:39;;;;;;;6.13;2.10;;;15.40;99.90;;;;;;5074423;28;20360;-77
2022/07/02 00:06:06;;;;;;;7.68;2.40;;;15.40;99.90;;;;;;5090647;28;20036;-77
2022/07/02 00:08:33;;;;;;;6.57;2.45;;;15.40;99.90;;;;;;5057746;28;20078;-77
2022/07/02 00:11:01;;;;;;;6.28;2.20;;;15.30;99.90;;;;;;5073771;28;20439;-78
2022/07/02 00:13:27;;;;;;;9.23;2.17;;;15.30;99.90;;;;;;5074259;28;20108;-77
2022/07/02 00:15:55;;;;;;;7.78;2.60;;;15.30;99.90;;;;;;5057109;28;20047;-77
2022/07/02 00:18:21;;;;;;;8.68;2.38;;;15.30;99.90;;;;;;5073509;28;20204;-77
2022/07/02 00:20:48;;;;;;;7.68;2.70;;;15.30;99.90;;;;;;5079460;28;20499;-77
2022/07/02 00:23:13;;;;;;;10.00;2.00;;;15.30;99.90;;;;;;5053586;28;20082;-77
2022/07/02 00:25:56;;;;;;;7.88;2.50;;;15.20;99.90;;;;;;5053500;28;20040;-77
2022/07/02 00:28:24;;;;;;;6.85;2.20;;;15.20;99.90;;;;;;5054052;28;20036;-77
2022/07/02 00:30:52;;;;;;;7.18;2.40;;;15.20;99.90;;;;;;5064786;28;20051;-77
2022/07/02 00:33:18;;;;;;;6.40;2.28;;;15.20;99.90;;;;;;5067137;28;20100;-77
2022/07/02 00:35:45;;;;;;;5.88;2.30;;;15.10;99.90;;;;;;5044887;28;20042;-78
2022/07/02 00:38:11;;;;;;;9.10;2.47;;;15.10;99.90;;;;;;5053987;28;20191;-77
2022/07/02 00:40:39;;;;;;;8.23;2.75;;;15.10;99.90;;;;;;5036933;28;20059;-77
2022/07/02 00:43:06;;;;;;;7.90;2.30;;;15.10;99.90;;;;;;5070123;28;20040;-77
2022/07/02 00:45:35;;;;;;;7.97;2.42;;;15.00;99.90;;;;;;5073619;28;20063;-77
2022/07/02 00:48:01;;;;;;;7.82;2.63;;;15.00;99.90;;;;;;5073166;28;20036;-78
2022/07/02 00:50:27;;;;;;;8.68;2.63;;;15.00;99.90;;;;;;5073381;28;20036;-77
2022/07/02 00:52:53;;;;;;;6.75;2.25;;;14.90;99.90;;;;;;5073264;28;20058;-77
2022/07/02 00:55:19;;;;;;;7.63;2.53;;;14.80;99.90;;;;;;5064703;28;20490;-77
2022/07/02 00:57:48;;;;;;;10.20;2.40;;;14.90;99.90;;;;;;5052596;28;20051;-78
2022/07/02 01:00:18;;;;;;;10.27;2.70;;;14.80;99.90;;;;;;5039844;28;20048;-77
2022/07/02 01:02:45;;;;;;;7.95;2.63;;;14.80;99.90;;;;;;5072706;28;20075;-78
2022/07/02 01:05:14;;;;;;;6.32;2.40;;;14.80;99.90;;;;;;5072455;28;20062;-77
2022/07/02 01:07:44;;;;;;;7.40;2.58;;;14.80;99.90;;;;;;5072817;28;20067;-77
2022/07/02 01:10:17;;;;;;;7.35;2.50;;;14.70;99.90;;;;;;5072973;28;20269;-77
2022/07/02 01:12:48;;;;;;;7.28;2.58;;;14.70;99.90;;;;;;5089643;28;20167;-77
2022/07/02 01:15:15;;;;;;;6.85;2.60;;;14.60;99.90;;;;;;5089750;28;20100;-77
2022/07/02 01:17:41;;;;;;;8.60;2.67;;;14.60;99.90;;;;;;5089181;28;20513;-77
2022/07/02 01:20:08;;;;;;;10.02;2.90;;;14.60;99.90;;;;;;5081522;28;20060;-77
2022/07/02 01:22:39;;;;;;;7.40;2.78;;;14.60;99.90;;;;;;5035503;28;20048;-77
2022/07/02 01:25:06;;;;;;;7.30;2.80;;;14.60;99.90;;;;;;5052866;28;20040;-77
2022/07/02 01:27:32;;;;;;;10.00;2.70;;;14.50;99.90;;;;;;5068992;28;20506;-77
2022/07/02 01:29:58;;;;;;;8.38;2.78;;;14.50;99.90;;;;;;5036436;28;20510;-77
2022/07/02 01:32:24;;;;;;;7.45;2.60;;;14.50;99.90;;;;;;5052187;28;20051;-77
2022/07/02 01:34:53;;;;;;;8.15;2.60;;;14.50;99.90;;;;;;5069518;28;20040;-78
2022/07/02 01:37:21;;;;;;;8.88;2.60;;;14.50;99.90;;;;;;5068634;28;20051;-77
2022/07/02 01:39:48;;;;;;;9.52;2.83;;;14.50;99.90;;;;;;5052642;28;20116;-77
2022/07/02 01:42:15;;;;;;;10.93;2.90;;;14.40;99.90;;;;;;5048775;28;20040;-77
2022/07/02 01:44:41;;;;;;;10.07;2.92;;;14.40;99.90;;;;;;5072541;28;20394;-77
2022/07/02 01:47:09;;;;;;;8.82;2.65;;;14.40;99.90;;;;;;5071910;28;20198;-76
2022/07/02 01:49:36;;;;;;;10.02;2.80;;;14.40;99.90;;;;;;5069082;28;20040;-77
2022/07/02 01:52:03;;;;;;;7.97;2.85;;;14.40;99.90;;;;;;5035112;28;20509;-77
2022/07/02 01:54:29;;;;;;;7.22;2.65;;;14.40;99.90;;;;;;5062498;28;20200;-77
2022/07/02 01:56:55;;;;;;;10.68;2.60;;;14.40;99.90;;;;;;5088629;28;20141;-78
2022/07/02 01:59:21;;;;;;;9.93;2.70;;;14.40;99.90;;;;;;5088862;28;20539;-77
2022/07/02 02:01:47;;;;;;;7.55;2.45;;;14.40;99.90;;;;;;5071478;28;20096;-77
2022/07/02 02:04:13;;;;;;;8.05;2.70;;;14.40;99.90;;;;;;5055457;28;20114;-77
2022/07/02 02:06:39;;;;;;;9.27;2.72;;;14.30;99.90;;;;;;5088204;28;20070;-77
2022/07/02 02:09:06;;;;;;;9.35;2.85;;;14.30;99.90;;;;;;5072257;28;20486;-77
2022/07/02 02:11:32;;;;;;;7.75;2.63;;;14.30;99.90;;;;;;5088443;28;20048;-77
2022/07/02 02:13:58;;;;;;;7.45;2.50;;;14.30;99.90;;;;;;5088382;28;20066;-77
2022/07/02 02:16:29;;;;;;;8.80;3.38;;;14.30;99.90;;;;;;5071662;28;20052;-77
2022/07/02 02:18:56;;;;;;;9.13;2.65;;;14.20;99.90;;;;;;5082135;28;20182;-77
2022/07/02 02:21:26;;;;;;;9.50;2.90;;;14.20;99.90;;;;;;5062776;28;20049;-76
2022/07/02 02:23:53;;;;;;;9.70;3.00;;;14.20;99.90;;;;;;5068166;28;20045;-77
2022/07/02 02:26:19;;;;;;;8.68;2.85;;;14.20;99.90;;;;;;5067633;28;20125;-77
2022/07/02 02:28:45;;;;;;;8.00;2.90;;;14.10;99.90;;;;;;5069181;28;20120;-77
2022/07/02 02:31:11;;;;;;;10.43;3.10;;;14.10;99.90;;;;;;5051663;28;20517;-76
2022/07/02 02:33:37;;;;;;;8.57;2.70;;;14.10;99.90;;;;;;5067958;28;20457;-77
2022/07/02 02:36:03;;;;;;;9.70;2.85;;;14.10;99.90;;;;;;5051074;28;20078;-77
2022/07/02 02:38:28;;;;;;;9.15;2.90;;;14.10;99.90;;;;;;5067919;28;20040;-77
2022/07/02 02:40:54;;;;;;;8.23;2.80;;;14.10;99.90;;;;;;5039943;28;20108;-77
2022/07/02 02:43:20;;;;;;;8.80;2.95;;;14.10;99.90;;;;;;5055069;28;20089;-76
2022/07/02 02:45:45;;;;;;;8.48;3.20;;;14.10;99.90;;;;;;5070699;28;20042;-77
2022/07/02 02:48:11;;;;;;;7.50;2.92;;;14.10;99.90;;;;;;5070988;28;20071;-77
2022/07/02 02:50:37;;;;;;;8.38;3.00;;;14.10;99.90;;;;;;5070842;28;20051;-77
2022/07/02 02:53:03;;;;;;;7.18;2.40;;;14.10;99.90;;;;;;5054057;28;20160;-77
2022/07/02 02:55:29;;;;;;;10.52;2.83;;;14.10;99.90;;;;;;5070617;28;20043;-77
2022/07/02 02:57:55;;;;;;;8.32;2.55;;;14.10;99.90;;;;;;5050470;28;20115;-77
2022/07/02 03:00:20;;;;;;;6.28;2.30;;;14.00;99.90;;;;;;5037694;28;20124;-76
2022/07/02 03:02:47;;;;;;;11.52;3.17;;;14.10;99.90;;;;;;5050722;28;20487;-77
2022/07/02 03:05:12;;;;;;;8.85;2.78;;;14.10;99.90;;;;;;5050915;28;20036;-77
2022/07/02 03:07:38;;;;;;;10.18;2.78;;;14.10;99.90;;;;;;5050891;28;20110;-77
2022/07/02 03:10:04;;;;;;;10.45;3.35;;;14.10;99.90;;;;;;5050988;28;20518;-76
2022/07/02 03:12:30;;;;;;;10.90;3.10;;;14.10;99.90;;;;;;5067332;28;20048;-77
2022/07/02 03:14:56;;;;;;;8.15;2.80;;;14.10;99.90;;;;;;5034355;28;20116;-77
2022/07/02 03:17:22;;;;;;;10.48;3.22;;;14.10;99.90;;;;;;5033607;28;20494;-77
2022/07/02 03:19:48;;;;;;;10.65;3.28;;;14.10;99.90;;;;;;5052874;28;20056;-77
2022/07/02 03:22:13;;;;;;;9.75;2.95;;;14.10;99.90;;;;;;5033325;28;20112;-76
2022/07/02 03:24:39;;;;;;;11.82;3.50;;;14.10;99.90;;;;;;5050848;28;20062;-77
2022/07/02 03:27:05;;;;;;;6.90;2.75;;;14.10;99.90;;;;;;5069071;28;20044;-77
2022/07/02 03:29:31;;;;;;;7.80;2.97;;;14.00;99.90;;;;;;5040897;28;20570;-77
2022/07/02 03:31:56;;;;;;;9.07;2.97;;;14.10;99.90;;;;;;5056493;28;20468;-77
2022/07/02 03:34:22;;;;;;;8.57;2.97;;;14.10;99.90;;;;;;5040634;28;20131;-77
2022/07/02 03:36:48;;;;;;;8.02;3.30;;;14.10;99.90;;;;;;5057375;28;20227;-77
2022/07/02 03:39:13;;;;;;;8.90;2.88;;;14.10;99.90;;;;;;5040555;28;20414;-77
2022/07/02 03:41:39;;;;;;;9.75;3.33;;;14.10;99.90;;;;;;5056508;28;20047;-76
2022/07/02 03:44:05;;;;;;;8.98;3.38;;;14.10;99.90;;;;;;5040784;28;20058;-76
2022/07/02 03:46:30;;;;;;;8.98;3.25;;;14.10;99.90;;;;;;5023398;28;20068;-77
2022/07/02 03:48:56;;;;;;;10.45;3.50;;;14.10;99.90;;;;;;5064042;28;20044;-76
2022/07/02 03:51:22;;;;;;;8.60;3.20;;;14.10;99.90;;;;;;5039644;28;20052;-77
2022/07/02 03:53:48;;;;;;;11.57;3.20;;;14.10;99.90;;;;;;5045304;28;20078;-77
2022/07/02 03:56:14;;;;;;;10.38;3.47;;;14.10;99.90;;;;;;5046912;28;20048;-77
2022/07/02 03:58:40;;;;;;;8.73;3.25;;;14.10;99.90;;;;;;5076462;28;20075;-77
2022/07/02 04:01:07;;;;;;;9.35;3.60;;;14.10;99.90;;;;;;5043446;28;20070;-78
2022/07/02 04:03:34;;;;;;;11.75;3.53;;;14.10;99.90;;;;;;5076982;28;20054;-77
2022/07/02 04:06:00;;;;;;;10.35;3.42;;;14.20;99.90;;;;;;5043429;28;20044;-77
2022/07/02 04:08:26;;;;;;;10.40;3.33;;;14.10;99.90;;;;;;5094117;28;20036;-77
2022/07/02 04:10:52;;;;;;;9.32;3.50;;;14.20;99.90;;;;;;5076794;28;20523;-77
2022/07/02 04:13:17;;;;;;;9.18;3.20;;;14.20;99.90;;;;;;5093772;28;20529;-76
2022/07/02 04:15:43;;;;;;;11.75;3.55;;;14.20;99.90;;;;;;5043361;28;20043;-76
2022/07/02 04:18:09;;;;;;;10.30;3.78;;;14.30;99.90;;;;;;5057533;28;20048;-77
2022/07/02 04:20:35;;;;;;;9.25;3.55;;;14.30;99.90;;;;;;5049350;28;20047;-77
2022/07/02 04:23:00;;;;;;;8.85;3.70;;;14.40;99.90;;;;;;5059866;28;20043;-77
2022/07/02 04:25:28;;;;;;;8.20;3.40;;;14.50;99.90;;;;;;5077205;28;20048;-77
2022/07/02 04:27:54;;;;;;;13.88;4.63;;;14.50;99.90;;;;;;5093094;28;20050;-77
2022/07/02 04:30:20;;;;;;;8.20;3.50;;;14.60;99.90;;;;;;5076890;28;20068;-77
2022/07/02 04:32:46;;;;;;;8.43;3.33;;;14.60;99.90;;;;;;5076111;28;20068;-77
2022/07/02 04:35:12;;;;;;;9.43;3.85;;;14.70;99.90;;;;;;5076601;28;20040;-77
2022/07/02 04:37:38;;;;;;;11.90;4.40;;;14.70;99.90;;;;;;5059650;28;20101;-77
2022/07/02 04:40:05;;;;;;;12.35;4.03;;;14.80;99.90;;;;;;5072554;28;20481;-77
2022/07/02 04:42:31;;;;;;;8.82;3.85;;;14.80;99.90;;;;;;5061101;28;20037;-77
2022/07/02 04:44:57;;;;;;;10.88;4.15;;;14.90;99.90;;;;;;5070345;28;20032;-77
2022/07/02 04:47:22;;;;;;;9.18;3.75;;;14.90;99.90;;;;;;5052929;28;20432;-77
2022/07/02 04:49:48;;;;;;;10.35;4.38;;;15.00;99.90;;;;;;5036622;28;20120;-78
2022/07/02 04:52:14;;;;;;;10.73;4.28;;;15.00;99.90;;;;;;5052830;28;20040;-77
2022/07/02 04:54:39;;;;;;;10.38;4.05;;;15.00;99.90;;;;;;5065098;28;20048;-77
2022/07/02 04:57:05;;;;;;;9.90;4.15;;;15.10;99.90;;;;;;5073209;28;20054;-77
2022/07/02 04:59:31;;;;;;;12.35;4.47;;;15.20;99.90;;;;;;5054769;28;20118;-78
2022/07/02 05:01:57;;;;;;;9.93;4.25;;;15.20;99.90;;;;;;5052748;28;20224;-77
2022/07/02 05:04:23;;;;;;;12.15;4.63;;;15.30;99.90;;;;;;5052892;28;20476;-78
2022/07/02 05:06:48;;;;;;;10.60;4.53;;;15.30;99.90;;;;;;5052564;28;20501;-77
2022/07/02 05:09:14;;;;;;;9.70;4.18;;;15.40;99.90;;;;;;5036351;28;20112;-77
2022/07/02 05:11:40;;;;;;;10.45;4.45;;;15.40;99.90;;;;;;5052560;28;20127;-77
2022/07/02 05:14:06;;;;;;;9.45;4.57;;;15.50;99.90;;;;;;5052806;28;20130;-77
2022/07/02 05:16:31;;;;;;;10.30;4.43;;;15.60;99.90;;;;;;5035953;28;20130;-77
2022/07/02 05:18:57;;;;;;;10.45;4.35;;;15.50;99.90;;;;;;5061777;28;20059;-77
2022/07/02 05:21:23;;;;;;;10.88;5.10;;;15.60;99.90;;;;;;5070395;28;20045;-78
2022/07/02 05:23:48;;;;;;;10.85;4.43;;;15.70;99.90;;;;;;5069580;28;20048;-77
2022/07/02 05:26:14;;;;;;;10.55;5.20;;;15.80;99.90;;;;;;5036143;28;20486;-77
2022/07/02 05:28:40;;;;;;;9.65;4.53;;;15.80;99.90;;;;;;5052795;28;20117;-77
2022/07/02 05:31:06;;;;;;;9.98;4.72;;;15.80;99.90;;;;;;5019276;28;20036;-77
2022/07/02 05:33:31;;;;;;;10.98;4.50;;;15.90;99.90;;;;;;5052640;28;20044;-77
2022/07/02 05:35:57;;;;;;;9.65;4.40;;;15.90;99.90;;;;;;5035652;28;20121;-77
2022/07/02 05:38:23;;;;;;;11.63;4.85;;;16.00;99.90;;;;;;5069148;28;20036;-77
2022/07/02 05:40:49;;;;;;;10.23;4.65;;;16.10;99.90;;;;;;5084156;28;20044;-77
2022/07/02 05:43:14;;;;;;;11.20;4.65;;;16.20;99.90;;;;;;5072448;28;20128;-78
2022/07/02 05:45:40;;;;;;;10.18;4.60;;;16.20;99.90;;;;;;5072219;28;20036;-77
2022/07/02 05:48:06;;;;;;;9.10;4.13;;;16.30;99.90;;;;;;5038632;28;20193;-77
2022/07/02 05:50:32;;;;;;;10.98;4.60;;;16.40;99.90;;;;;;5071867;28;20043;-77
2022/07/02 05:52:58;;;;;;;10.52;4.47;;;16.50;99.90;;;;;;5071908;28;20039;-77
2022/07/02 05:55:23;;;;;;;10.52;4.22;;;16.50;99.90;;;;;;5042466;28;20048;-77
2022/07/02 05:57:49;;;;;;;11.10;4.20;;;16.50;99.90;;;;;;5018742;28;20258;-78
2022/07/02 06:00:15;;;;;;;9.07;4.03;;;16.60;99.90;;;;;;5035808;28;20047;-77
2022/07/02 06:02:41;;;;;;;10.27;4.05;;;16.70;99.90;;;;;;5051459;28;20453;-77
2022/07/02 06:07:51;;;;;;;9.55;3.72;;;16.80;99.90;;;;;;5060926;28;20040;-77
2022/07/02 06:10:20;;;;;;;12.75;3.83;;;16.80;99.90;;;;;;5071999;28;20297;-77
2022/07/02 06:12:51;;;;;;;9.20;3.72;;;16.90;99.90;;;;;;5055401;28;20044;-77
2022/07/02 06:15:17;;;;;;;10.68;4.18;;;17.00;99.90;;;;;;5072122;28;20044;-77
2022/07/02 06:17:44;;;;;;;10.93;4.05;;;17.10;99.90;;;;;;5071200;28;20197;-78
2022/07/02 06:20:11;;;;;;;11.30;3.90;;;17.20;99.90;;;;;;5059323;28;20047;-77
2022/07/02 06:22:37;;;;;;;9.43;3.28;;;17.20;99.90;;;;;;5070184;28;20085;-77
2022/07/02 06:25:04;;;;;;;8.82;3.35;;;17.30;99.90;;;;;;5055147;28;20055;-77
2022/07/02 06:27:34;;;;;;;9.02;3.25;;;17.40;99.90;;;;;;5053067;28;20445;-77
2022/07/02 06:30:07;;;;;;;8.90;3.10;;;17.40;99.90;;;;;;5051985;28;20045;-77
2022/07/02 06:32:33;;;;;;;9.07;3.42;;;17.50;99.90;;;;;;5051459;28;20028;-77
2022/07/02 06:34:58;;;;;;;10.18;3.20;;;17.60;99.90;;;;;;5035256;28;20503;-77
2022/07/02 06:37:25;;;;;;;8.60;2.80;;;17.70;99.90;;;;;;5051069;28;20120;-78
2022/07/02 06:39:51;;;;;;;7.43;2.70;;;17.70;99.90;;;;;;5062638;28;20105;-77
2022/07/02 06:42:22;;;;;;;10.05;3.17;;;17.80;99.90;;;;;;5087619;28;20119;-78
2022/07/02 06:44:50;;;;;;;8.32;3.10;;;17.90;99.90;;;;;;5071680;28;20036;-78
2022/07/02 06:47:16;;;;;;;9.75;2.80;;;17.90;99.90;;;;;;5070927;28;20047;-77
2022/07/02 06:49:42;;;;;;;7.47;2.67;;;17.90;99.90;;;;;;5071363;28;20043;-77
2022/07/02 06:52:08;;;;;;;7.90;2.72;;;17.90;99.90;;;;;;5070903;28;20096;-78
2022/07/02 06:54:35;;;;;;;11.73;2.80;;;18.00;99.90;;;;;;5078243;28;20052;-78
2022/07/02 06:57:01;;;;;;;7.63;2.47;;;18.10;99.90;;;;;;5067607;28;20135;-78
2022/07/02 06:59:27;;;;;;;8.80;2.53;;;18.20;99.90;;;;;;5034719;28;20612;-78
2022/07/02 07:01:53;;;;;;;7.80;2.50;;;18.20;99.90;;;;;;5050146;28;20279;-78
2022/07/02 07:04:19;;;;;;;7.63;2.50;;;18.20;99.90;;;;;;5051638;28;20123;-78
2022/07/02 07:09:13;;;;;;;8.70;2.80;;;18.40;99.90;;;;;;5060406;28;20101;-78
2022/07/02 07:11:39;;;;;;;9.30;2.60;;;18.50;99.90;;;;;;5034308;28;20044;-79
2022/07/02 07:14:05;;;;;;;7.35;2.42;;;18.50;99.90;;;;;;5051091;28;20048;-78
2022/07/02 07:16:31;;;;;;;6.43;2.10;;;18.70;99.90;;;;;;5067427;28;20036;-78
2022/07/02 07:19:06;;;;;;;9.45;2.17;;;18.70;99.90;;;;;;5050959;28;20056;-78
2022/07/02 07:21:36;;;;;;;7.10;2.28;;;18.80;99.90;;;;;;5036513;28;20052;-78
2022/07/02 07:24:02;;;;;;;7.03;2.00;;;18.80;99.90;;;;;;5051205;28;20119;-78
2022/07/02 07:26:28;;;;;;;10.07;2.47;;;18.90;99.90;;;;;;5034454;28;20052;-78
2022/07/02 07:28:54;;;;;;;8.02;2.08;;;18.90;99.90;;;;;;5051621;28;20098;-78
2022/07/02 07:31:20;;;;;;;7.07;2.10;;;19.00;99.90;;;;;;5050665;28;20103;-78
2022/07/02 07:33:50;;;;;;;6.35;2.03;;;19.00;99.90;;;;;;5051029;28;20067;-78
2022/07/02 07:36:17;;;;;;;5.57;1.80;;;19.10;99.90;;;;;;5050554;28;20032;-78
2022/07/02 07:38:43;;;;;;;9.98;2.15;;;19.10;99.90;;;;;;5040347;28;20072;-78
2022/07/02 07:41:09;;;;;;;6.97;2.00;;;19.10;99.90;;;;;;5087406;28;20458;-78
2022/07/02 07:43:34;;;;;;;5.93;1.80;;;19.10;99.90;;;;;;5070852;28;20411;-77
2022/07/02 07:46:00;;;;;;;6.10;1.60;;;19.20;99.90;;;;;;5070577;28;20040;-77
2022/07/02 07:48:26;;;;;;;7.70;1.88;;;19.20;99.90;;;;;;5067223;28;20036;-77
2022/07/02 07:50:52;;;;;;;5.60;1.70;;;19.20;99.90;;;;;;5060617;28;20044;-77
2022/07/02 07:53:18;;;;;;;4.07;1.55;;;19.30;99.90;;;;;;5054811;28;20040;-78
2022/07/02 07:55:43;;;;;;;5.68;1.73;;;19.40;99.90;;;;;;5037328;28;20040;-78
2022/07/02 07:58:09;;;;;;;7.10;1.92;;;19.40;99.90;;;;;;5037805;28;20047;-77
2022/07/02 08:00:35;;;;;;;5.88;1.80;;;19.60;99.90;;;;;;5054040;28;20317;-77
2022/07/02 08:03:01;;;;;;;6.72;1.92;;;19.60;99.90;;;;;;5053727;28;20036;-77
2022/07/02 08:05:26;;;;;;;4.72;1.73;;;19.70;99.90;;;;;;5053743;28;20047;-78
2022/07/02 08:07:52;;;;;;;6.47;1.98;;;19.70;99.90;;;;;;5054201;28;20032;-77
2022/07/02 08:10:18;;;;;;;5.82;1.90;;;19.70;99.90;;;;;;5053958;28;20048;-77
2022/07/02 08:12:44;;;;;;;4.88;1.60;;;19.70;99.90;;;;;;5046213;28;20040;-77
2022/07/02 08:15:11;;;;;;;5.72;1.83;;;19.70;99.90;;;;;;5091356;28;20047;-77
2022/07/02 08:17:38;;;;;;;6.13;1.85;;;19.70;99.90;;;;;;5074058;28;20436;-77
2022/07/02 08:20:05;;;;;;;6.03;1.83;;;19.80;99.90;;;;;;5072485;28;20056;-78
2022/07/02 08:22:32;;;;;;;6.47;2.05;;;19.90;99.90;;;;;;5053632;28;20123;-77
2022/07/02 08:24:58;;;;;;;8.13;1.90;;;20.00;99.90;;;;;;5037233;28;20032;-77
2022/07/02 08:27:24;;;;;;;6.90;1.88;;;20.00;99.90;;;;;;5070741;28;20039;-78
2022/07/02 08:29:51;;;;;;;5.32;1.63;;;20.10;99.90;;;;;;5037902;28;20364;-77
2022/07/02 08:32:18;;;;;;;5.13;1.42;;;20.20;99.90;;;;;;5070847;28;20116;-77
2022/07/02 08:34:43;;;;;;;5.95;1.80;;;20.30;99.90;;;;;;5054202;28;20040;-77
2022/07/02 08:37:09;;;;;;;5.00;1.60;;;20.40;99.90;;;;;;5060056;28;20454;-79
2022/07/02 08:39:35;;;;;;;4.78;1.40;;;20.40;99.90;;;;;;5075239;28;20495;-78
2022/07/02 08:42:02;;;;;;;6.32;1.42;;;20.40;99.90;;;;;;5053612;28;20287;-78
2022/07/02 08:44:31;;;;;;;3.08;1.35;;;20.50;99.90;;;;;;5054006;28;20040;-78
2022/07/02 08:46:58;;;;;;;4.50;1.40;;;20.50;99.90;;;;;;5053603;28;20042;-78
2022/07/02 08:49:26;;;;;;;5.82;1.67;;;20.60;99.90;;;;;;5053642;28;20111;-78
2022/07/02 08:54:22;;;;;;;5.13;1.40;;;20.70;99.90;;;;;;5063617;28;20063;-77
2022/07/02 08:56:51;;;;;;;4.45;1.50;;;20.70;99.90;;;;;;5073336;28;20071;-78
2022/07/02 08:59:17;;;;;;;4.03;1.20;;;20.70;99.90;;;;;;5057308;28;20116;-77
2022/07/02 09:01:46;;;;;;;4.43;1.40;;;20.70;99.90;;;;;;5056864;28;20416;-77
2022/07/02 09:04:14;;;;;;;5.53;1.40;;;20.70;99.90;;;;;;5090488;28;20040;-79
2022/07/02 09:06:41;;;;;;;4.88;1.30;;;20.80;99.90;;;;;;5073256;28;20098;-78
2022/07/02 09:09:09;;;;;;;4.13;1.50;;;20.80;99.90;;;;;;5059634;28;20119;-78
2022/07/02 09:11:35;;;;;;;2.53;1.10;;;20.80;99.90;;;;;;5053318;28;20127;-77
2022/07/02 09:14:03;;;;;;;4.93;1.50;;;20.80;99.90;;;;;;5053364;28;20048;-78
2022/07/02 09:16:29;;;;;;;3.65;1.40;;;20.90;99.90;;;;;;5036222;28;20050;-78
2022/07/02 09:18:55;;;;;;;5.38;1.55;;;21.00;99.90;;;;;;5053256;28;20115;-78
2022/07/02 09:21:20;;;;;;;3.88;1.10;;;21.10;99.90;;;;;;5052635;28;20503;-78
2022/07/02 09:23:48;;;;;;;2.13;0.95;;;21.20;99.90;;;;;;5053261;28;20041;-78
2022/07/02 09:26:22;;;;;;;3.80;1.23;;;21.20;99.90;;;;;;5052003;28;20482;-78
2022/07/02 09:28:59;;;;;;;2.47;0.90;;;21.30;99.90;;;;;;5053360;28;20406;-77
2022/07/02 09:31:28;;;;;;;3.55;1.08;;;21.30;99.90;;;;;;5059842;28;20074;-77
2022/07/02 09:33:55;;;;;;;3.38;1.00;;;21.30;99.90;;;;;;5089893;28;20032;-77
2022/07/02 09:36:21;;;;;;;3.42;1.02;;;21.30;99.90;;;;;;5089290;28;20047;-78
2022/07/02 09:38:50;;;;;;;3.10;0.90;;;21.30;99.90;;;;;;5089975;28;20075;-78
2022/07/02 09:41:21;;;;;;;3.47;1.10;;;21.40;99.90;;;;;;5082660;28;20098;-78
2022/07/02 09:43:57;;;;;;;2.72;0.98;;;21.50;99.90;;;;;;5069401;28;20483;-78
2022/07/02 09:46:23;;;;;;;1.55;0.90;;;21.60;99.90;;;;;;5036486;28;20117;-78
2022/07/02 09:48:49;;;;;;;4.30;1.10;;;21.60;99.90;;;;;;5065690;28;20495;-78
2022/07/02 09:51:15;;;;;;;3.35;0.95;;;21.70;99.90;;;;;;5019304;28;20094;-77
2022/07/02 09:53:55;;;;;;;4.15;1.05;;;21.80;99.90;;;;;;5056723;28;20039;-78
2022/07/02 09:56:22;;;;;;;5.53;0.90;;;21.80;99.90;;;;;;5088810;28;20533;-78
2022/07/02 09:58:49;;;;;;;3.63;1.05;;;22.00;99.90;;;;;;5055644;28;20093;-78
2022/07/02 10:01:22;;;;;;;2.45;0.90;;;22.00;99.90;;;;;;5038752;28;20036;-78
2022/07/02 10:03:53;;;;;;;2.22;0.90;;;22.10;99.90;;;;;;5089199;28;20067;-78
2022/07/02 10:06:20;;;;;;;2.05;0.73;;;22.00;99.90;;;;;;5088791;28;20490;-79
2022/07/02 10:08:47;;;;;;;2.20;0.85;;;22.00;99.90;;;;;;5072060;28;20044;-77
2022/07/02 10:11:14;;;;;;;3.33;0.90;;;21.90;99.90;;;;;;5068551;28;20036;-77
2022/07/02 10:13:40;;;;;;;4.75;1.10;;;21.80;99.90;;;;;;5052536;28;20048;-77
2022/07/02 10:16:14;;;;;;;0.88;0.70;;;21.80;99.90;;;;;;5035055;28;20033;-78
2022/07/02 10:18:44;;;;;;;4.18;1.20;;;21.80;99.90;;;;;;5068360;28;20487;-78
2022/07/02 10:21:14;;;;;;;4.03;1.20;;;21.90;99.90;;;;;;5068122;28;20540;-78
2022/07/02 10:23:44;;;;;;;4.15;1.10;;;21.90;99.90;;;;;;5068991;28;20145;-77
2022/07/02 10:26:11;;;;;;;2.92;0.90;;;21.70;99.90;;;;;;5051412;28;20119;-77
2022/07/02 10:28:37;;;;;;;3.05;1.10;;;21.60;99.90;;;;;;5068300;28;20124;-77
2022/07/02 10:31:05;;;;;;;5.70;1.00;;;21.70;99.90;;;;;;5034790;28;20355;-77
2022/07/02 10:33:35;;;;;;;3.08;0.98;;;21.80;99.90;;;;;;5051797;28;20193;-78
2022/07/02 10:36:03;;;;;;;4.13;1.10;;;21.90;99.90;;;;;;5067613;28;20051;-78
2022/07/02 10:38:32;;;;;;;3.42;1.10;;;21.90;99.90;;;;;;5067639;28;20047;-78
2022/07/02 10:40:57;;;;;;;2.83;1.23;;;22.10;99.90;;;;;;5034756;28;20052;-77
2022/07/02 10:43:26;;;;;;;2.53;0.85;;;22.10;99.90;;;;;;5051292;28;20037;-78
2022/07/02 10:46:06;;;;;;;2.58;0.70;;;22.20;99.90;;;;;;5064594;28;20499;-77
2022/07/02 10:48:34;;;;;;;4.53;0.90;;;22.30;99.90;;;;;;5051243;28;20496;-78
2022/07/02 10:51:01;;;;;;;1.95;0.93;;;22.30;99.90;;;;;;5051260;28;20124;-78
2022/07/02 10:53:28;;;;;;;1.55;0.80;;;22.40;99.90;;;;;;5069936;28;20478;-79
2022/07/02 10:55:54;;;;;;;4.65;1.10;;;22.50;99.90;;;;;;5070933;28;20496;-77
2022/07/02 10:58:26;;;;;;;3.78;1.10;;;22.40;99.90;;;;;;5088247;28;20546;-78
2022/07/02 11:00:52;;;;;;;3.75;0.90;;;22.20;99.90;;;;;;5087705;28;20046;-78
2022/07/02 11:03:18;;;;;;;2.38;1.10;;;21.90;99.90;;;;;;5071115;28;20036;-77
2022/07/02 11:06:00;;;;;;;1.88;1.00;;;21.70;99.90;;;;;;5070723;28;20557;-77
2022/07/02 11:08:41;;;;;;;3.53;1.17;;;21.50;99.90;;;;;;5076940;28;20050;-78
2022/07/02 11:11:12;;;;;;;1.00;0.75;;;21.30;99.90;;;;;;5050862;28;20279;-78
2022/07/02 11:13:45;;;;;;;2.20;0.70;;;21.50;99.90;;;;;;5050831;28;20499;-77
2022/07/02 11:16:20;;;;;;;3.50;1.10;;;21.60;99.90;;;;;;5067561;28;20499;-77
2022/07/02 11:18:47;;;;;;;3.65;1.20;;;21.90;99.90;;;;;;5050789;28;20048;-77
2022/07/02 11:21:13;;;;;;;3.45;1.17;;;22.10;99.90;;;;;;5034947;28;20044;-77
2022/07/02 11:23:40;;;;;;;3.08;1.10;;;22.40;99.90;;;;;;5050953;28;20032;-77
2022/07/02 11:26:07;;;;;;;5.07;1.10;;;22.60;99.90;;;;;;5050873;28;20036;-77
2022/07/02 11:28:34;;;;;;;4.38;1.13;;;22.70;99.90;;;;;;5050972;28;20067;-77
2022/07/02 11:31:02;;;;;;;4.60;1.30;;;22.90;99.90;;;;;;5050904;28;20097;-78
2022/07/02 11:33:28;;;;;;;2.42;0.80;;;23.10;99.90;;;;;;5018579;28;20075;-78
2022/07/02 11:35:54;;;;;;;2.50;0.70;;;23.30;99.90;;;;;;5033896;28;20040;-78
2022/07/02 11:38:19;;;;;;;2.38;1.02;;;23.50;99.90;;;;;;5082856;28;20040;-78
2022/07/02 11:40:45;;;;;;;2.25;0.70;;;23.60;99.90;;;;;;5070542;28;20557;-77
2022/07/02 11:43:15;;;;;;;3.95;0.93;;;23.60;99.90;;;;;;5053819;28;20111;-78
2022/07/02 11:45:45;;;;;;;4.53;1.40;;;23.60;99.90;;;;;;5087295;28;20379;-77
2022/07/02 11:48:23;;;;;;;3.30;0.95;;;23.70;99.90;;;;;;5071092;28;20062;-77
2022/07/02 11:50:59;;;;;;;4.38;0.90;;;23.90;99.90;;;;;;5037940;28;20052;-77
2022/07/02 11:53:25;;;;;;;2.92;0.98;;;24.00;99.90;;;;;;5056510;28;20120;-78
2022/07/02 11:55:51;;;;;;;4.43;1.17;;;24.10;99.90;;;;;;5074496;28;20127;-77
2022/07/02 11:58:18;;;;;;;5.15;1.27;;;24.20;99.90;;;;;;5091799;28;20075;-77
2022/07/02 12:00:44;;;;;;;2.30;0.70;;;24.30;99.90;;;;;;5091161;28;20074;-77
2022/07/02 12:03:13;;;;;;;3.78;1.20;;;24.40;99.90;;;;;;5074171;28;20556;-78
2022/07/02 12:05:52;;;;;;;4.13;0.85;;;24.40;99.90;;;;;;5057533;28;20032;-77
2022/07/02 12:08:18;;;;;;;3.50;1.10;;;24.20;99.90;;;;;;5072063;28;20114;-77
2022/07/02 12:10:44;;;;;;;2.92;0.93;;;23.90;99.90;;;;;;5054140;28;20135;-78
2022/07/02 12:13:11;;;;;;;2.13;0.88;;;23.80;99.90;;;;;;5054268;28;20046;-77
2022/07/02 12:15:49;;;;;;;3.25;0.95;;;23.70;99.90;;;;;;5054426;28;20037;-77
2022/07/02 12:18:19;;;;;;;3.85;1.08;;;24.00;99.90;;;;;;5070725;28;20102;-76
2022/07/02 12:20:45;;;;;;;8.63;1.48;;;24.30;99.90;;;;;;5037810;28;20040;-78
2022/07/02 12:23:11;;;;;;;3.70;1.13;;;24.30;99.90;;;;;;5070588;28;20048;-77
2022/07/02 12:25:48;;;;;;;2.38;0.82;;;24.30;99.90;;;;;;5053932;28;20044;-77
2022/07/02 12:31:03;;;;;;;3.15;1.00;;;24.10;99.90;;;;;;5056346;28;20040;-77
2022/07/02 12:33:36;;;;;;;2.55;1.10;;;24.30;99.90;;;;;;5037583;28;20076;-77
2022/07/02 12:36:04;;;;;;;;;;;24.30;99.90;;;;;;5054328;28;20048;-77
2022/07/02 12:38:44;;;;;;;2.40;0.80;;;24.30;99.90;;;;;;5067411;28;19916;-78
2022/07/02 12:41:10;;;;;;;2.60;0.95;;;24.20;99.90;;;;;;5069996;28;20723;-77
2022/07/02 12:43:36;;;;;;;2.97;1.05;;;24.10;99.90;;;;;;5053651;28;20063;-77
2022/07/02 12:46:07;;;;;;;2.08;0.77;;;23.90;99.90;;;;;;5036722;28;20041;-77
2022/07/02 12:48:43;;;;;;;3.83;1.10;;;23.70;99.90;;;;;;5060677;28;20043;-77
2022/07/02 12:51:10;;;;;;;3.30;1.10;;;23.60;99.90;;;;;;5090217;28;20516;-78
2022/07/02 12:53:36;;;;;;;4.40;1.13;;;23.50;99.90;;;;;;5073759;28;20036;-78
2022/07/02 12:56:03;;;;;;;1.48;0.65;;;23.40;99.90;;;;;;5039793;28;20044;-78